Monday, July 23, 2018, 7:46 AM EDT
Back to Local

KITH, Ithaca, Ithaca Tompkins Regional Airport

Location: Ithaca, NY, United States Lat: 42.491
Local Time: 7:46 AM EDT (11:46 GMT) Lon: -76.458
Time Zone: US/Eastern Elev: 1099 ft

Show me the last for .
Show Decoded

2018-07-23 06:56 METAR KITH 231056Z 12008G14KT 10SM SCT013 22/21 A3002 RMK AO2 SLP156 T02220206 =
2018-07-23 06:30 METAR KITH 231030Z 12007KT 10SM SCT013 22/20 A3002 RMK AO2 =
2018-07-23 05:56 METAR KITH 230956Z AUTO 13006KT 10SM FEW100 22/20 A3002 RMK AO2 SLP159 T02170200
                 =
2018-07-23 04:56 METAR KITH 230856Z AUTO 13009G15KT 10SM SCT017 SCT027 22/20 A2999 RMK AO2 SLP147
                 T02170200 52002 =
2018-07-23 04:06 METAR KITH 230806Z AUTO 13007KT 10SM BKN022 21/19 A2999 RMK AO2 =
2018-07-23 03:56 METAR KITH 230756Z AUTO 12005KT 10SM FEW017 SCT025 21/19 A3000 RMK AO2 SLP149
                 T02110194 =
2018-07-23 02:56 METAR KITH 230656Z AUTO 13008KT 10SM CLR 21/19 A2998 RMK AO2 SLP144 T02110194 =
2018-07-23 01:56 METAR KITH 230556Z AUTO 13006KT 10SM SCT120 21/20 A2999 RMK AO2 SLP146 6////
                 T02110200 10244 20211 50002 =
2018-07-23 01:24 METAR KITH 230524Z AUTO 13009KT 10SM SCT021 22/20 A2999 RMK AO2 =
2018-07-23 01:12 METAR KITH 230512Z AUTO 11008KT 10SM BKN021 BKN050 22/21 A2998 RMK AO2 =
2018-07-23 00:56 METAR KITH 230456Z AUTO 12005KT 10SM SCT055 SCT070 22/21 A2999 RMK AO2 RAB34E47
                 SLP148 P0000 T02170206 =
2018-07-22 23:56 METAR KITH 230356Z AUTO 11006KT 10SM CLR 22/21 A2999 RMK AO2 SLP146 T02170206
                 402890156 =
2018-07-22 22:56 METAR KITH 230256Z AUTO 11008KT 10SM CLR 22/20 A2998 RMK AO2 SLP145 60025
                 T02170200 51013 =
2018-07-22 21:56 METAR KITH 230156Z 10007KT 10SM FEW043 SCT065 BKN110 21/21 A2998 RMK AO2
                 RAB03E52 SLP146 P0025 T02110206 =
2018-07-22 21:25 METAR KITH 230125Z 13011KT 3SM R32/3500VP6000FT RA BR SCT018 BKN039 OVC050 22/21
                 A2998 RMK AO2 RAB03 P0022 =
2018-07-22 20:56 METAR KITH 230056Z 14006KT 10SM FEW050 23/19 A2996 RMK AO2 SLP139 T02330194 =
2018-07-22 19:56 METAR KITH 222356Z 12005KT 10SM SCT100 24/19 A2994 RMK AO2 SLP133 T02440194
                 10289 20244 51013 =
2018-07-22 18:56 METAR KITH 222256Z 14011G16KT 10SM SCT037 SCT110 26/19 A2994 RMK AO2 SLP130
                 T02560194 =
2018-07-22 17:56 METAR KITH 222156Z 15011G17KT 10SM SCT038 BKN110 26/19 A2992 RMK AO2 SLP124
                 T02610194 =
2018-07-22 16:56 METAR KITH 222056Z 17014KT 10SM SCT045 28/19 A2990 RMK AO2 SLP119 T02780194
                 53008 =
2018-07-22 15:56 METAR KITH 221956Z 15015G24KT 10SM SCT040 28/19 A2990 RMK AO2 SLP116 T02780194 =
2018-07-22 14:56 METAR KITH 221856Z 17012G23KT 10SM SCT031 27/19 A2988 RMK AO2 PK WND 17028/1803
                 SLP112 T02670189 =
2018-07-22 13:56 METAR KITH 221756Z 18017G23KT 10SM BKN030 26/19 A2988 RMK AO2 PK WND 18027/1704
                 SLP111 60000 T02560189 10256 20183 53025 =
2018-07-22 12:56 METAR KITH 221656Z 16019G25KT 10SM BKN023 25/19 A2985 RMK AO2 SLP101 T02500194 =
2018-07-22 11:56 METAR KITH 221556Z 16017G23KT 10SM BKN023 24/19 A2983 RMK AO2 PK WND 15027/1500
                 SLP094 T02390189 =
2018-07-22 10:56 METAR KITH 221456Z 17016G28KT 10SM BKN016 23/19 A2980 RMK AO2 PK WND 15028/1451
                 SLP086 60000 T02280189 53021 =
2018-07-22 09:56 METAR KITH 221356Z 14014G24KT 4SM BR BKN014 OVC021 22/20 A2976 RMK AO2 RAB50E52
                 SLP072 P0000 T02170200 =
2018-07-22 08:56 METAR KITH 221256Z 09012G20KT 8SM BKN014 21/18 A2974 RMK AO2 RAE31 SLP064 P0000
                 T02060183 =
2018-07-22 07:56 METAR KITH 221156Z 09008G17KT 2SM -RA BR BKN016 OVC022 18/17 A2974 RMK AO2
                 SLP064 P0000 60015 70018 T01830172 10183 20156 55002 =

Support USWX by starting your Amazon purchase here.